createdAt,value
2023-01-06T00:01:50.494Z,96405.72
2023-01-06T00:06:51.991Z,96403.81
2023-01-06T00:11:53.505Z,96399.41
2023-01-06T00:16:55.022Z,96382.59
2023-01-06T00:21:56.484Z,96385.09
2023-01-06T00:26:57.903Z,96367.63
2023-01-06T00:32:00.769Z,96378.06
2023-01-06T00:37:04.100Z,96375.63
2023-01-06T00:42:05.687Z,96377.00
2023-01-06T00:47:10.723Z,96372.91
2023-01-06T00:52:13.051Z,96370.81
2023-01-06T00:57:14.492Z,96369.53
2023-01-06T01:02:16.273Z,96367.47
2023-01-06T01:07:18.838Z,96366.63
2023-01-06T01:12:20.620Z,96374.56
2023-01-06T01:17:27.870Z,96366.41
2023-01-06T01:22:31.290Z,96367.09
2023-01-06T01:27:32.754Z,96369.53
2023-01-06T01:32:34.197Z,96368.69
2023-01-06T01:37:36.813Z,96363.00
2023-01-06T01:42:38.280Z,96356.25
2023-01-06T01:48:17.033Z,96350.72
2023-01-06T01:53:25.896Z,96354.72
2023-01-06T01:58:36.301Z,96356.06
2023-01-06T02:03:40.830Z,96355.22
2023-01-06T02:09:05.771Z,96359.59
2023-01-06T02:14:14.015Z,96350.38
2023-01-06T02:19:57.654Z,96344.19
2023-01-06T02:25:23.459Z,96326.22
2023-01-06T02:30:41.502Z,96333.56
2023-01-06T02:35:51.904Z,96324.97
2023-01-06T02:41:03.704Z,96326.75
2023-01-06T02:46:53.057Z,96319.31
2023-01-06T02:52:09.563Z,96317.91
2023-01-06T02:57:30.162Z,96319.19
2023-01-06T03:02:37.099Z,96318.66
2023-01-06T03:07:39.524Z,96313.19
2023-01-06T03:13:02.596Z,96313.84
2023-01-06T03:18:05.475Z,96311.50
2023-01-06T03:23:07.186Z,96312.75
2023-01-06T03:28:08.977Z,96310.97
2023-01-06T03:33:21.010Z,96317.91
2023-01-06T03:38:30.758Z,96321.31
2023-01-06T03:43:33.239Z,96333.91
2023-01-06T03:49:03.853Z,96324.16
2023-01-06T03:54:10.663Z,96318.84
2023-01-06T03:59:18.765Z,96321.69
2023-01-06T04:04:22.380Z,96318.56
2023-01-06T04:09:24.163Z,96312.44
2023-01-06T04:14:25.837Z,96309.75
2023-01-06T04:19:28.149Z,96310.25
2023-01-06T04:24:30.031Z,96310.25
2023-01-06T04:29:32.087Z,96312.00
2023-01-06T04:34:33.675Z,96314.19
2023-01-06T04:39:35.465Z,96316.38
2023-01-06T04:44:37.038Z,96317.97
2023-01-06T04:49:38.574Z,96317.53
2023-01-06T04:54:40.057Z,96310.25
2023-01-06T04:59:41.549Z,96322.22
2023-01-06T05:04:47.660Z,96324.72
2023-01-06T05:09:49.769Z,96331.22
2023-01-06T05:14:51.238Z,96342.91
2023-01-06T05:19:52.830Z,96347.63
2023-01-06T05:24:54.305Z,96361.53
2023-01-06T05:29:55.796Z,96355.97
2023-01-06T05:34:57.509Z,96354.91
2023-01-06T05:39:59.011Z,96354.34
2023-01-06T05:45:00.559Z,96354.69
2023-01-06T05:50:02.192Z,96354.72
2023-01-06T05:55:04.058Z,96368.22
2023-01-06T06:00:12.095Z,96376.31
2023-01-06T06:05:16.367Z,96375.19
2023-01-06T06:10:17.980Z,96369.91
2023-01-06T06:15:19.757Z,96385.75
2023-01-06T06:20:21.219Z,96387.81
2023-01-06T06:25:22.728Z,96390.13
2023-01-06T06:30:24.227Z,96387.00
2023-01-06T06:35:25.682Z,96384.16
2023-01-06T06:40:27.282Z,96374.72
2023-01-06T06:45:28.790Z,96378.25
2023-01-06T06:50:30.243Z,96381.97
2023-01-06T06:55:32.755Z,96372.28
2023-01-06T07:00:34.237Z,96375.78
2023-01-06T07:05:35.898Z,96377.97
2023-01-06T07:10:37.663Z,96379.56
2023-01-06T07:15:39.331Z,96373.72
2023-01-06T07:20:40.879Z,96366.56
2023-01-06T07:25:42.411Z,96366.88
2023-01-06T07:30:44.434Z,96369.81
2023-01-06T07:35:46.006Z,96364.38
2023-01-06T07:40:47.476Z,96365.13
2023-01-06T07:45:49.136Z,96369.97
2023-01-06T07:50:50.720Z,96367.97
2023-01-06T07:55:55.589Z,96368.91
2023-01-06T08:00:57.110Z,96369.72
2023-01-06T08:05:58.552Z,96375.97
2023-01-06T08:11:00.020Z,96371.75
2023-01-06T08:16:08.721Z,96378.66
2023-01-06T08:21:11.195Z,96379.50
2023-01-06T08:26:17.119Z,96385.69
2023-01-06T08:31:20.488Z,96382.59
2023-01-06T08:36:24.829Z,96378.72
2023-01-06T08:41:26.347Z,96383.47
2023-01-06T08:46:27.989Z,96388.16
2023-01-06T08:51:29.603Z,96385.53
2023-01-06T08:56:32.012Z,96393.97
2023-01-06T09:01:36.212Z,96401.34
2023-01-06T09:06:38.428Z,96409.47
2023-01-06T09:11:44.979Z,96430.03
2023-01-06T09:16:46.499Z,96424.00
2023-01-06T09:21:47.957Z,96426.41
2023-01-06T09:26:49.467Z,96416.97
2023-01-06T09:31:50.971Z,96431.47
2023-01-06T09:36:52.493Z,96429.72
2023-01-06T09:42:12.421Z,96431.78
2023-01-06T09:47:18.332Z,96436.84
2023-01-06T09:52:45.717Z,96444.34
2023-01-06T09:57:54.027Z,96435.06
2023-01-06T10:02:55.508Z,96437.69
2023-01-06T10:08:18.859Z,96436.41
2023-01-06T10:13:29.705Z,96428.38
2023-01-06T10:18:46.616Z,96429.22
2023-01-06T10:24:05.083Z,96415.53
2023-01-06T10:29:14.562Z,96410.84
2023-01-06T10:34:26.950Z,96420.97
2023-01-06T10:39:31.322Z,96423.22
2023-01-06T10:44:32.891Z,96427.88
2023-01-06T10:49:34.366Z,96435.78
2023-01-06T10:54:36.518Z,96423.38
2023-01-06T11:00:15.809Z,96421.19
2023-01-06T11:05:28.689Z,96423.59
2023-01-06T11:10:37.965Z,96422.09
2023-01-06T11:15:41.227Z,96417.66
2023-01-06T11:20:42.817Z,96424.94
2023-01-06T11:25:48.780Z,96416.03
2023-01-06T11:31:02.559Z,96422.06
2023-01-06T11:36:13.097Z,96421.66
2023-01-06T11:41:25.755Z,96420.22
2023-01-06T11:46:27.339Z,96417.44
2023-01-06T11:51:49.001Z,96411.16
2023-01-06T11:57:02.182Z,96406.03
2023-01-06T12:02:03.736Z,96388.09
2023-01-06T12:07:25.295Z,96382.31
2023-01-06T12:12:28.060Z,96383.22
2023-01-06T12:17:40.017Z,96380.56
2023-01-06T12:22:54.816Z,96368.56
2023-01-06T12:28:06.510Z,96370.25
2023-01-06T12:33:18.726Z,96363.28
2023-01-06T12:38:42.191Z,96356.91
2023-01-06T12:43:52.051Z,96350.69
2023-01-06T12:49:04.535Z,96346.13
2023-01-06T12:54:15.647Z,96335.19
2023-01-06T12:59:30.787Z,96338.47
2023-01-06T13:04:48.021Z,96326.75
2023-01-06T13:10:15.755Z,96330.22
2023-01-06T13:15:32.270Z,96330.69
2023-01-06T13:21:01.910Z,96331.38
2023-01-06T13:26:29.225Z,96324.41
2023-01-06T13:31:52.722Z,96324.00
2023-01-06T13:37:16.812Z,96320.22
2023-01-06T13:42:30.379Z,96318.94
2023-01-06T13:47:31.920Z,96308.63
2023-01-06T13:52:33.601Z,96304.44
2023-01-06T13:57:38.952Z,96302.03
2023-01-06T14:02:40.461Z,96305.25
2023-01-06T14:07:51.928Z,96289.09
2023-01-06T14:12:54.390Z,96288.84
2023-01-06T14:17:55.935Z,96281.78
2023-01-06T14:23:00.511Z,96287.47
2023-01-06T14:28:02.746Z,96279.97
2023-01-06T14:33:22.858Z,96288.94
2023-01-06T14:38:29.609Z,96284.41
2023-01-06T14:43:54.866Z,96286.28
2023-01-06T14:49:01.214Z,96281.38
2023-01-06T14:54:12.517Z,96284.44
2023-01-06T14:59:14.523Z,96295.38
2023-01-06T15:04:24.828Z,96289.53
2023-01-06T15:09:26.660Z,96291.59
2023-01-06T15:14:31.170Z,96282.47
2023-01-06T15:19:34.246Z,96283.94
2023-01-06T15:24:40.562Z,96277.97
2023-01-06T15:29:53.238Z,96273.47
2023-01-06T15:34:56.863Z,96272.88
2023-01-06T15:39:58.546Z,96266.06
2023-01-06T15:45:01.602Z,96269.03
2023-01-06T15:50:06.494Z,96271.53
2023-01-06T15:55:23.074Z,96264.50
2023-01-06T16:00:31.424Z,96267.69
2023-01-06T16:05:32.846Z,96273.38
2023-01-06T16:10:38.547Z,96270.41
2023-01-06T16:15:49.115Z,96269.16
2023-01-06T16:20:50.607Z,96271.25
2023-01-06T16:26:03.166Z,96271.03
2023-01-06T16:31:10.644Z,96278.34
2023-01-06T16:36:16.958Z,96284.66
2023-01-06T16:41:19.662Z,96284.78
2023-01-06T16:46:23.415Z,96298.41
2023-01-06T16:51:24.951Z,96299.97
2023-01-06T16:56:26.426Z,96298.56
2023-01-06T17:01:28.956Z,96310.06
2023-01-06T17:06:31.574Z,96309.69
2023-01-06T17:11:35.079Z,96315.28
2023-01-06T17:16:40.443Z,96328.00
2023-01-06T17:21:41.918Z,96323.66
2023-01-06T17:26:57.024Z,96325.44
2023-01-06T17:32:02.004Z,96332.59
2023-01-06T17:37:13.339Z,96334.13
2023-01-06T17:42:14.793Z,96341.41
2023-01-06T17:47:16.250Z,96346.81
2023-01-06T17:52:39.091Z,96346.16
2023-01-06T17:57:42.350Z,96347.28
2023-01-06T18:02:50.266Z,96346.66
2023-01-06T18:08:07.598Z,96346.81
2023-01-06T18:13:14.784Z,96348.25
2023-01-06T18:18:22.011Z,96353.16
2023-01-06T18:23:25.678Z,96355.47
2023-01-06T18:28:27.539Z,96359.84
2023-01-06T18:33:30.079Z,96366.78
2023-01-06T18:38:31.581Z,96376.53
2023-01-06T18:43:33.814Z,96374.59
2023-01-06T18:48:35.355Z,96374.56
2023-01-06T18:53:40.002Z,96374.28
2023-01-06T18:58:46.487Z,96366.84
2023-01-06T19:04:04.666Z,96366.03
2023-01-06T19:09:18.466Z,96371.66
2023-01-06T19:14:19.918Z,96372.59
2023-01-06T19:19:41.255Z,96367.09
2023-01-06T19:25:30.313Z,96366.13
2023-01-06T19:30:53.378Z,96362.41
2023-01-06T19:36:41.173Z,96363.97
2023-01-06T19:41:42.723Z,96352.94
2023-01-06T19:46:46.832Z,96352.09
2023-01-06T19:51:50.321Z,96353.41
2023-01-06T19:56:53.635Z,96350.41
2023-01-06T20:02:18.289Z,96342.22
2023-01-06T20:07:19.782Z,96336.34
2023-01-06T20:12:21.213Z,96337.88
2023-01-06T20:17:22.763Z,96331.66
2023-01-06T20:22:24.300Z,96330.50
2023-01-06T20:27:29.027Z,96323.06
2023-01-06T20:32:30.874Z,96326.53
2023-01-06T20:37:32.419Z,96320.66
2023-01-06T20:42:33.945Z,96330.47
2023-01-06T20:47:35.525Z,96322.50
2023-01-06T20:52:36.958Z,96326.13
2023-01-06T20:57:38.395Z,96323.28
2023-01-06T21:02:39.925Z,96314.22
2023-01-06T21:07:41.539Z,96307.97
2023-01-06T21:12:43.039Z,96306.03
2023-01-06T21:17:44.844Z,96306.38
2023-01-06T21:22:46.358Z,96293.19
2023-01-06T21:27:47.815Z,96294.09
2023-01-06T21:32:49.306Z,96283.78
2023-01-06T21:37:51.024Z,96278.34
2023-01-06T21:42:52.581Z,96280.75
2023-01-06T21:47:54.055Z,96278.56
2023-01-06T21:52:55.594Z,96269.19
2023-01-06T21:57:57.200Z,96272.94
2023-01-06T22:02:58.785Z,96272.22
2023-01-06T22:08:00.335Z,96269.47
2023-01-06T22:13:01.904Z,96264.16
2023-01-06T22:18:03.629Z,96268.81
2023-01-06T22:23:10.049Z,96262.91
2023-01-06T22:28:11.620Z,96272.16
2023-01-06T22:33:13.130Z,96269.44
2023-01-06T22:38:14.871Z,96264.13
2023-01-06T22:43:16.434Z,96268.94
2023-01-06T22:48:18.477Z,96264.97
2023-01-06T22:53:19.972Z,96263.03
2023-01-06T22:58:21.489Z,96257.25
2023-01-06T23:03:23.707Z,96254.50
2023-01-06T23:08:27.289Z,96254.47
2023-01-06T23:13:29.280Z,96249.41
2023-01-06T23:18:36.277Z,96249.28
2023-01-06T23:23:39.654Z,96243.66
2023-01-06T23:28:41.855Z,96241.38
2023-01-06T23:33:53.964Z,96232.47
2023-01-06T23:38:55.677Z,96229.03
2023-01-06T23:43:57.973Z,96222.78
2023-01-06T23:48:59.918Z,96217.59
2023-01-06T23:54:03.645Z,96211.28
2023-01-06T23:59:07.795Z,96202.56
